Time;durP1;ratioP1;P1;durP2;ratioP2;P2;SDS_P1;SDS_P2;PMS_P1;PMS_P2;Temp;Humidity;BMP_temperature;BMP_pressure;BME280_temperature;BME280_humidity;BME280_pressure;Samples;Min_cycle;Max_cycle;Signal;HPM_P1;HPM_P2
2023/08/16 00:01:28;;;;;;;2.80;1.63;;;15.40;99.90;;;;;;4989137;28;20512;-76
2023/08/16 00:03:54;;;;;;;2.38;1.58;;;15.60;99.90;;;;;;4982736;28;20057;-78
2023/08/16 00:06:21;;;;;;;3.67;1.60;;;15.80;99.90;;;;;;5009387;28;20038;-78
2023/08/16 00:08:47;;;;;;;3.17;1.77;;;15.60;99.90;;;;;;4988826;28;20128;-78
2023/08/16 00:11:13;;;;;;;2.05;1.55;;;15.20;99.90;;;;;;4981057;28;20514;-78
2023/08/16 00:13:40;;;;;;;4.20;1.88;;;15.40;99.90;;;;;;5016249;28;20034;-78
2023/08/16 00:16:06;;;;;;;3.13;1.50;;;15.50;99.90;;;;;;4992160;28;20425;-78
2023/08/16 00:18:33;;;;;;;2.30;1.60;;;15.40;99.90;;;;;;5004994;28;20045;-78
2023/08/16 00:20:59;;;;;;;2.97;1.60;;;15.30;99.90;;;;;;4989756;28;20386;-78
2023/08/16 00:23:25;;;;;;;6.13;2.30;;;15.30;99.90;;;;;;4995159;28;20041;-78
2023/08/16 00:25:51;;;;;;;4.57;2.20;;;15.10;99.90;;;;;;5003838;28;20029;-78
2023/08/16 00:28:17;;;;;;;5.00;2.30;;;14.90;99.90;;;;;;4990324;28;20056;-78
2023/08/16 00:30:43;;;;;;;3.90;2.20;;;15.90;99.90;;;;;;4985213;28;20077;-78
2023/08/16 00:33:09;;;;;;;3.30;2.13;;;15.30;99.90;;;;;;4987999;28;20529;-78
2023/08/16 00:35:34;;;;;;;5.43;2.67;;;15.10;99.90;;;;;;5019505;28;20069;-78
2023/08/16 00:38:00;;;;;;;4.78;2.53;;;15.00;99.90;;;;;;5004358;28;20037;-78
2023/08/16 00:40:25;;;;;;;3.80;2.40;;;15.20;99.90;;;;;;5004319;28;20389;-78
2023/08/16 00:42:51;;;;;;;5.05;3.20;;;15.20;99.90;;;;;;4978639;28;20041;-78
2023/08/16 00:45:17;;;;;;;2.95;2.17;;;15.00;99.90;;;;;;4992058;28;20097;-78
2023/08/16 00:47:44;;;;;;;3.53;2.03;;;15.50;99.90;;;;;;4997862;28;20136;-78
2023/08/16 00:50:10;;;;;;;5.60;2.20;;;15.00;99.90;;;;;;4992762;28;20053;-78
2023/08/16 00:52:36;;;;;;;4.25;1.98;;;15.80;99.90;;;;;;5002933;28;20030;-78
2023/08/16 00:55:02;;;;;;;5.75;2.88;;;15.90;99.90;;;;;;5013069;28;20034;-78
2023/08/16 00:57:29;;;;;;;5.28;2.40;;;14.90;99.90;;;;;;5003465;28;20044;-78
2023/08/16 00:59:58;;;;;;;5.97;2.20;;;15.30;99.90;;;;;;5001649;28;20069;-78
2023/08/16 01:02:24;;;;;;;5.22;2.28;;;15.50;99.90;;;;;;5013543;28;20542;-78
2023/08/16 01:04:49;;;;;;;5.43;2.80;;;15.70;99.90;;;;;;4998276;28;20158;-78
2023/08/16 01:07:15;;;;;;;3.83;2.47;;;15.80;99.90;;;;;;5008001;28;20125;-78
2023/08/16 01:09:42;;;;;;;3.38;2.40;;;15.70;99.90;;;;;;5012907;28;20071;-78
2023/08/16 01:12:23;;;;;;;5.05;2.53;;;15.90;99.90;;;;;;5023609;28;20038;-78
2023/08/16 01:14:57;;;;;;;5.22;2.72;;;13.30;99.90;;;;;;4998691;28;20038;-78
2023/08/16 01:17:24;;;;;;;5.75;2.85;;;14.90;99.90;;;;;;5030179;28;20049;-78
2023/08/16 01:19:52;;;;;;;5.45;2.40;;;15.70;99.90;;;;;;5014539;28;20124;-78
2023/08/16 01:22:28;;;;;;;3.38;2.28;;;15.00;99.90;;;;;;4987681;28;20041;-78
2023/08/16 01:25:16;;;;;;;3.22;1.95;;;14.90;99.90;;;;;;4997588;28;20038;-78
2023/08/16 01:27:43;;;;;;;2.83;2.17;;;14.80;99.90;;;;;;5012279;28;20105;-78
2023/08/16 01:30:11;;;;;;;5.90;2.75;;;15.60;99.90;;;;;;4997302;28;20582;-76
2023/08/16 01:32:40;;;;;;;5.97;2.63;;;15.00;99.90;;;;;;5016399;28;20401;-75
2023/08/16 01:35:06;;;;;;;6.03;3.20;;;15.80;99.90;;;;;;4985109;28;20034;-75
2023/08/16 01:37:32;;;;;;;5.47;2.95;;;15.10;99.90;;;;;;5008194;28;20045;-75
2023/08/16 01:40:01;;;;;;;4.60;2.55;;;15.70;99.90;;;;;;5025780;28;20401;-75
2023/08/16 01:42:29;;;;;;;3.22;2.55;;;15.00;99.90;;;;;;5015763;28;20374;-75
2023/08/16 01:44:59;;;;;;;3.95;2.60;;;15.70;99.90;;;;;;5000796;28;20046;-75
2023/08/16 01:47:26;;;;;;;3.60;2.65;;;15.30;99.90;;;;;;5006383;28;20496;-75
2023/08/16 01:49:53;;;;;;;4.03;2.60;;;15.20;99.90;;;;;;5006901;28;20045;-75
2023/08/16 01:52:19;;;;;;;6.63;2.97;;;14.70;99.90;;;;;;4999727;28;20490;-75
2023/08/16 01:54:45;;;;;;;6.90;2.70;;;15.40;99.90;;;;;;4990636;28;20037;-75
2023/08/16 01:57:15;;;;;;;5.25;2.70;;;14.70;99.90;;;;;;4985489;28;20064;-75
2023/08/16 01:59:44;;;;;;;4.70;2.60;;;14.60;99.90;;;;;;4997419;28;20338;-75
2023/08/16 02:02:10;;;;;;;3.28;2.40;;;14.40;99.90;;;;;;4990997;28;20038;-75
2023/08/16 02:04:36;;;;;;;4.18;2.38;;;15.70;99.90;;;;;;5006798;28;20076;-75
2023/08/16 02:07:01;;;;;;;5.40;2.70;;;14.50;99.90;;;;;;5022873;28;20506;-76
2023/08/16 02:09:27;;;;;;;5.20;2.42;;;14.60;99.90;;;;;;4995973;28;20042;-76
2023/08/16 02:11:53;;;;;;;6.15;2.75;;;14.30;99.90;;;;;;5007639;28;20034;-76
2023/08/16 02:14:18;;;;;;;5.00;2.50;;;15.30;99.90;;;;;;4985071;28;20040;-76
2023/08/16 02:16:47;;;;;;;4.43;2.50;;;14.30;99.90;;;;;;5005767;28;20037;-76
2023/08/16 02:19:16;;;;;;;7.05;2.70;;;14.50;99.90;;;;;;5018105;28;20037;-76
2023/08/16 02:21:42;;;;;;;4.20;2.85;;;14.70;99.90;;;;;;4988695;28;20037;-76
2023/08/16 02:24:12;;;;;;;4.53;2.72;;;14.20;99.90;;;;;;5001984;28;20068;-75
2023/08/16 02:26:37;;;;;;;3.80;2.47;;;14.30;99.90;;;;;;5011844;28;20046;-75
2023/08/16 02:29:03;;;;;;;4.07;2.40;;;14.40;99.90;;;;;;5024696;28;20396;-76
2023/08/16 02:31:29;;;;;;;4.63;2.60;;;15.00;99.90;;;;;;5011498;28;20048;-75
2023/08/16 02:33:55;;;;;;;4.85;2.50;;;15.20;99.90;;;;;;4975986;28;20042;-75
2023/08/16 02:36:21;;;;;;;7.22;2.70;;;14.20;99.90;;;;;;4979064;28;20057;-75
2023/08/16 02:38:47;;;;;;;5.68;2.38;;;15.00;99.90;;;;;;5025086;28;20037;-75
2023/08/16 02:41:13;;;;;;;4.93;2.30;;;14.20;99.90;;;;;;4997624;28;20038;-75
2023/08/16 02:43:39;;;;;;;5.28;2.47;;;14.20;99.90;;;;;;5021194;28;20390;-75
2023/08/16 02:46:04;;;;;;;5.07;2.80;;;14.90;99.90;;;;;;4994180;28;20048;-75
2023/08/16 02:48:30;;;;;;;4.75;2.85;;;14.20;99.90;;;;;;5024153;28;20033;-75
2023/08/16 02:50:56;;;;;;;6.80;2.85;;;14.20;99.90;;;;;;5010506;28;20042;-75
2023/08/16 02:53:22;;;;;;;8.93;2.85;;;15.20;99.90;;;;;;5012324;28;20504;-75
2023/08/16 02:55:48;;;;;;;3.88;2.55;;;15.20;99.90;;;;;;5026598;28;20553;-75
2023/08/16 02:58:15;;;;;;;6.80;3.22;;;;;;;;;;5009500;28;20099;-75
2023/08/16 03:00:40;;;;;;;4.20;2.72;;;14.10;99.90;;;;;;5000943;28;20057;-75
2023/08/16 03:03:07;;;;;;;4.30;2.70;;;13.90;99.90;;;;;;4988463;28;20041;-75
2023/08/16 03:05:35;;;;;;;6.30;3.25;;;14.00;99.90;;;;;;5031041;28;20033;-75
2023/08/16 03:08:01;;;;;;;5.65;3.05;;;14.40;99.90;;;;;;5025689;28;20402;-75
2023/08/16 03:10:27;;;;;;;5.47;3.10;;;14.00;99.90;;;;;;4994601;28;20045;-75
2023/08/16 03:13:03;;;;;;;3.72;2.58;;;14.00;99.90;;;;;;4989584;28;20037;-75
2023/08/16 03:15:29;;;;;;;5.00;2.58;;;14.00;99.90;;;;;;4995523;28;20050;-75
2023/08/16 03:17:56;;;;;;;6.15;2.72;;;14.20;99.90;;;;;;5011665;28;20046;-75
2023/08/16 03:20:22;;;;;;;6.07;2.90;;;14.00;99.90;;;;;;5001070;28;20405;-76
2023/08/16 03:22:48;;;;;;;5.10;3.03;;;14.00;99.90;;;;;;4988845;28;20502;-76
2023/08/16 03:25:17;;;;;;;7.10;3.80;;;14.00;99.90;;;;;;4998065;28;20091;-75
2023/08/16 03:27:43;;;;;;;6.38;3.20;;;14.00;99.90;;;;;;5017566;28;20513;-75
2023/08/16 03:30:10;;;;;;;7.05;3.67;;;13.90;99.90;;;;;;4994186;28;20038;-75
2023/08/16 03:32:37;;;;;;;7.10;3.00;;;13.90;99.90;;;;;;5001205;28;20037;-75
2023/08/16 03:35:04;;;;;;;6.40;3.30;;;13.80;99.90;;;;;;5004179;28;20489;-75
2023/08/16 03:37:32;;;;;;;5.75;3.60;;;13.90;99.90;;;;;;5031891;28;20045;-75
2023/08/16 03:39:59;;;;;;;7.00;3.53;;;13.80;99.90;;;;;;5004344;28;20037;-75
2023/08/16 03:42:24;;;;;;;5.72;3.40;;;13.90;99.90;;;;;;5009853;28;20030;-75
2023/08/16 03:44:50;;;;;;;5.95;3.60;;;13.90;99.90;;;;;;4976708;28;20048;-75
2023/08/16 03:47:16;;;;;;;7.82;3.95;;;13.90;99.90;;;;;;5007418;28;20080;-75
2023/08/16 03:49:44;;;;;;;10.20;4.05;;;13.90;99.90;;;;;;5005587;28;20046;-75
2023/08/16 03:52:09;;;;;;;9.63;4.30;;;13.90;99.90;;;;;;5022583;28;20565;-75
2023/08/16 03:54:35;;;;;;;7.53;4.40;;;14.00;99.90;;;;;;5018167;28;20022;-75
2023/08/16 03:57:08;;;;;;;8.57;4.22;;;13.90;99.90;;;;;;4991541;28;20033;-75
2023/08/16 03:59:34;;;;;;;6.57;4.28;;;13.90;99.90;;;;;;5001261;28;20543;-75
2023/08/16 04:01:59;;;;;;;8.40;4.07;;;13.90;99.90;;;;;;4985754;28;20129;-75
2023/08/16 04:04:25;;;;;;;9.20;4.28;;;13.90;99.90;;;;;;4995131;28;20065;-75
2023/08/16 04:06:51;;;;;;;7.25;3.83;;;14.00;99.90;;;;;;4990821;28;20125;-75
2023/08/16 04:09:17;;;;;;;8.27;3.70;;;13.90;99.90;;;;;;4996136;28;20461;-75
2023/08/16 04:11:44;;;;;;;5.45;3.97;;;13.20;99.90;;;;;;5018255;28;20045;-74
2023/08/16 04:14:11;;;;;;;8.15;3.58;;;13.70;99.90;;;;;;4983196;28;20445;-76
2023/08/16 04:16:37;;;;;;;6.28;3.65;;;13.80;99.90;;;;;;4999840;28;20095;-76
2023/08/16 04:19:05;;;;;;;7.60;3.72;;;13.70;99.90;;;;;;5010582;28;20657;-77
2023/08/16 04:21:31;;;;;;;8.38;3.28;;;13.60;99.90;;;;;;5002446;28;20087;-77
2023/08/16 04:23:57;;;;;;;6.50;3.42;;;13.70;99.90;;;;;;4972285;28;20042;-76
2023/08/16 04:26:23;;;;;;;6.00;3.60;;;13.70;99.90;;;;;;5008973;28;20056;-76
2023/08/16 04:28:49;;;;;;;4.72;3.13;;;13.70;99.90;;;;;;5020360;28;20037;-77
2023/08/16 04:31:14;;;;;;;5.32;3.15;;;13.60;99.90;;;;;;4984188;28;20045;-77
2023/08/16 04:33:40;;;;;;;6.03;3.25;;;13.70;99.90;;;;;;4989028;28;20440;-77
2023/08/16 04:36:06;;;;;;;7.55;4.15;;;13.80;99.90;;;;;;5019458;28;20040;-77
2023/08/16 04:38:32;;;;;;;8.77;3.97;;;13.60;99.90;;;;;;5003566;28;20045;-77
2023/08/16 04:40:58;;;;;;;6.75;4.07;;;13.60;99.90;;;;;;5015854;28;20172;-76
2023/08/16 04:43:23;;;;;;;6.70;3.55;;;13.60;99.90;;;;;;5004099;28;20132;-76
2023/08/16 04:45:49;;;;;;;8.85;3.88;;;13.70;99.90;;;;;;4983622;28;20128;-76
2023/08/16 04:48:15;;;;;;;7.57;3.92;;;13.60;99.90;;;;;;5017076;28;20041;-76
2023/08/16 04:50:47;;;;;;;6.55;3.40;;;13.70;99.90;;;;;;4998704;28;20061;-78
2023/08/16 04:53:16;;;;;;;5.70;3.30;;;13.90;99.90;;;;;;4992919;28;20034;-79
2023/08/16 04:55:42;;;;;;;6.90;3.63;;;13.60;99.90;;;;;;5011348;28;20061;-78
2023/08/16 04:58:08;;;;;;;4.68;3.25;;;13.80;99.90;;;;;;5015578;28;20061;-78
2023/08/16 05:00:34;;;;;;;5.80;3.65;;;13.50;99.90;;;;;;5012357;28;20561;-78
2023/08/16 05:03:00;;;;;;;7.80;3.08;;;13.50;99.90;;;;;;5008549;28;20041;-78
2023/08/16 05:05:26;;;;;;;5.97;3.50;;;13.90;99.90;;;;;;5006433;28;20057;-78
2023/08/16 05:07:52;;;;;;;9.52;3.40;;;13.40;99.90;;;;;;5018942;28;20083;-78
2023/08/16 05:10:18;;;;;;;6.53;3.25;;;14.00;99.90;;;;;;5017362;28;20506;-78
2023/08/16 05:12:46;;;;;;;6.82;3.70;;;13.60;99.90;;;;;;4988272;28;20417;-78
2023/08/16 05:15:12;;;;;;;8.20;3.72;;;13.50;99.90;;;;;;5014043;28;20438;-78
2023/08/16 05:17:39;;;;;;;5.85;3.70;;;13.60;99.90;;;;;;5002427;28;20034;-78
2023/08/16 05:20:08;;;;;;;8.25;3.90;;;13.60;99.90;;;;;;4992865;28;20128;-78
2023/08/16 05:22:33;;;;;;;7.13;3.80;;;13.70;99.90;;;;;;4996263;28;20042;-78
2023/08/16 05:24:59;;;;;;;8.65;4.25;;;14.00;99.90;;;;;;4991714;28;20034;-78
2023/08/16 05:27:25;;;;;;;6.40;3.45;;;13.70;99.90;;;;;;5022450;28;20040;-78
2023/08/16 05:29:50;;;;;;;7.35;4.07;;;13.70;99.90;;;;;;4974520;28;20076;-78
2023/08/16 05:32:16;;;;;;;9.63;3.90;;;13.70;99.90;;;;;;5004730;28;20045;-78
2023/08/16 05:34:42;;;;;;;7.07;3.80;;;13.70;99.90;;;;;;5002621;28;20490;-78
2023/08/16 05:37:09;;;;;;;7.43;4.07;;;14.10;99.90;;;;;;5025099;28;20034;-78
2023/08/16 05:39:35;;;;;;;8.43;4.10;;;13.80;99.90;;;;;;4976404;28;20108;-78
2023/08/16 05:42:01;;;;;;;6.95;4.15;;;14.20;99.90;;;;;;5045121;22;20074;-76
2023/08/16 05:44:26;;;;;;;8.05;4.20;;;13.90;99.90;;;;;;5051590;28;20116;-79
2023/08/16 05:46:52;;;;;;;7.57;4.80;;;13.90;99.90;;;;;;5031311;28;20033;-82
2023/08/16 05:49:18;;;;;;;10.07;4.97;;;14.00;99.90;;;;;;5030587;28;20396;-80
2023/08/16 05:51:43;;;;;;;8.40;5.63;;;14.00;99.90;;;;;;5045014;28;20055;-79
2023/08/16 05:54:09;;;;;;;8.13;5.18;;;14.20;99.90;;;;;;5038566;28;20423;-81
2023/08/16 05:56:34;;;;;;;9.98;5.70;;;14.10;99.90;;;;;;5034667;28;20059;-80
2023/08/16 05:59:00;;;;;;;9.00;5.72;;;14.20;99.90;;;;;;5034250;28;20079;-80
2023/08/16 06:01:26;;;;;;;8.70;5.90;;;14.30;99.90;;;;;;5039342;28;20098;-81
2023/08/16 06:03:51;;;;;;;9.52;6.40;;;14.30;99.90;;;;;;5038223;28;20120;-81
2023/08/16 06:06:17;;;;;;;12.30;6.70;;;14.60;99.90;;;;;;5036623;28;20045;-81
2023/08/16 06:08:42;;;;;;;10.63;6.32;;;14.40;99.90;;;;;;5042129;28;20105;-79
2023/08/16 06:11:08;;;;;;;10.55;6.90;;;14.50;99.90;;;;;;5036608;28;20124;-79
2023/08/16 06:13:34;;;;;;;10.23;7.03;;;14.50;99.90;;;;;;5036826;28;20079;-80
2023/08/16 06:16:00;;;;;;;10.07;6.85;;;14.60;99.90;;;;;;5030017;28;20471;-80
2023/08/16 06:18:25;;;;;;;12.05;6.93;;;14.60;99.90;;;;;;5031139;28;20385;-80
2023/08/16 06:20:51;;;;;;;12.35;6.90;;;14.60;99.90;;;;;;5035093;28;20075;-80
2023/08/16 06:23:17;;;;;;;10.95;7.47;;;14.70;99.90;;;;;;5040590;28;20041;-80
2023/08/16 06:25:42;;;;;;;10.90;7.10;;;14.70;99.90;;;;;;5039901;28;20033;-80
2023/08/16 06:28:08;;;;;;;12.13;6.85;;;14.70;99.90;;;;;;5042654;28;20036;-80
2023/08/16 06:30:36;;;;;;;11.15;6.72;;;14.80;99.90;;;;;;5041109;28;20037;-80
2023/08/16 06:33:02;;;;;;;11.60;6.55;;;14.80;99.90;;;;;;5038224;28;20063;-80
2023/08/16 06:35:29;;;;;;;9.90;6.63;;;14.90;99.90;;;;;;5043027;28;20064;-79
2023/08/16 06:37:55;;;;;;;11.07;7.10;;;14.90;99.90;;;;;;5041318;28;20047;-80
2023/08/16 06:40:21;;;;;;;12.65;7.32;;;14.90;99.90;;;;;;5036871;28;20075;-80
2023/08/16 06:42:46;;;;;;;12.20;7.45;;;14.90;99.90;;;;;;5038547;28;20072;-80
2023/08/16 06:45:12;;;;;;;11.82;7.60;;;15.10;99.90;;;;;;5039291;28;20076;-80
2023/08/16 06:47:37;;;;;;;13.95;8.30;;;15.00;99.90;;;;;;5049894;28;20040;-80
2023/08/16 06:50:04;;;;;;;10.75;8.20;;;15.10;99.90;;;;;;5034381;28;20190;-80
2023/08/16 06:52:30;;;;;;;10.30;7.40;;;15.20;99.90;;;;;;5042164;28;20170;-79
2023/08/16 06:54:56;;;;;;;12.95;8.05;;;15.30;99.90;;;;;;5043431;28;20119;-80
2023/08/16 06:57:21;;;;;;;12.20;9.07;;;15.40;99.90;;;;;;5040471;28;20045;-79
2023/08/16 06:59:47;;;;;;;14.48;8.27;;;15.40;99.90;;;;;;5033289;28;20515;-80
2023/08/16 07:02:14;;;;;;;10.85;7.85;;;15.50;99.90;;;;;;5042442;28;20037;-80
2023/08/16 07:04:42;;;;;;;11.82;8.07;;;15.60;99.90;;;;;;5028878;28;20368;-80
2023/08/16 07:07:08;;;;;;;13.18;7.65;;;15.70;99.90;;;;;;5031946;28;20037;-80
2023/08/16 07:09:34;;;;;;;11.00;7.55;;;15.80;99.90;;;;;;5037708;28;20162;-80
2023/08/16 07:12:00;;;;;;;13.25;7.90;;;15.90;99.90;;;;;;5021975;28;20514;-80
2023/08/16 07:14:25;;;;;;;14.90;8.73;;;15.90;99.90;;;;;;5033984;28;20555;-80
2023/08/16 07:16:51;;;;;;;14.88;9.68;;;15.90;99.90;;;;;;5042596;28;20056;-79
2023/08/16 07:19:17;;;;;;;16.65;9.43;;;16.00;99.90;;;;;;5028796;28;20044;-79
2023/08/16 07:21:43;;;;;;;14.80;9.98;;;16.10;99.90;;;;;;5034533;28;20051;-81
2023/08/16 07:24:09;;;;;;;14.02;9.20;;;16.20;99.90;;;;;;5033211;28;20037;-79
2023/08/16 07:26:35;;;;;;;13.75;8.48;;;16.20;99.90;;;;;;5018949;28;20043;-79
2023/08/16 07:29:01;;;;;;;14.10;7.93;;;16.30;99.90;;;;;;5053554;28;20040;-79
2023/08/16 07:31:26;;;;;;;13.98;7.85;;;16.30;99.90;;;;;;5042780;28;20044;-80
2023/08/16 07:33:52;;;;;;;12.10;7.60;;;16.40;99.90;;;;;;5038249;28;20033;-79
2023/08/16 07:36:18;;;;;;;13.70;7.15;;;16.40;99.90;;;;;;5035201;28;20044;-79
2023/08/16 07:38:45;;;;;;;11.95;6.30;;;16.50;99.90;;;;;;5039850;28;20037;-79
2023/08/16 07:41:11;;;;;;;8.65;5.85;;;16.50;99.90;;;;;;5037823;28;20052;-79
2023/08/16 07:43:36;;;;;;;11.23;5.43;;;16.60;99.90;;;;;;5023886;28;20032;-80
2023/08/16 07:46:02;;;;;;;9.93;5.32;;;16.60;99.90;;;;;;5037230;28;20036;-80
2023/08/16 07:48:28;;;;;;;12.65;5.70;;;16.70;99.90;;;;;;5036555;28;20040;-80
2023/08/16 07:50:54;;;;;;;11.70;6.10;;;16.80;99.90;;;;;;5043153;28;20044;-79
2023/08/16 07:53:22;;;;;;;7.65;4.90;;;16.80;99.90;;;;;;5038320;28;20255;-79
2023/08/16 07:55:47;;;;;;;12.90;5.05;;;16.90;99.90;;;;;;5038591;28;20048;-80
2023/08/16 07:58:15;;;;;;;10.57;4.90;;;16.90;99.90;;;;;;5045409;28;20025;-80
2023/08/16 08:00:42;;;;;;;8.43;4.70;;;17.00;99.90;;;;;;5036250;28;20333;-80
2023/08/16 08:03:09;;;;;;;9.38;4.25;;;17.00;99.90;;;;;;5050733;28;20055;-80
2023/08/16 08:05:35;;;;;;;8.80;4.40;;;17.10;99.90;;;;;;5035340;28;20128;-79
2023/08/16 08:08:01;;;;;;;7.63;4.53;;;17.10;99.90;;;;;;5034796;28;20033;-79
2023/08/16 08:10:29;;;;;;;6.22;4.22;;;17.10;99.90;;;;;;5040045;28;20044;-80
2023/08/16 08:12:55;;;;;;;9.65;4.70;;;17.10;99.90;;;;;;5040079;28;20094;-82
2023/08/16 08:15:20;;;;;;;6.93;4.25;;;17.20;99.90;;;;;;5035947;28;20040;-80
2023/08/16 08:17:47;;;;;;;5.80;3.72;;;17.30;99.90;;;;;;5033835;28;20098;-80
2023/08/16 08:20:14;;;;;;;8.18;4.15;;;17.30;99.90;;;;;;5036271;28;20041;-80
2023/08/16 08:22:40;;;;;;;7.68;3.33;;;17.40;99.90;;;;;;5040890;28;20041;-80
2023/08/16 08:25:06;;;;;;;7.40;3.55;;;17.40;99.90;;;;;;5031251;28;20083;-80
2023/08/16 08:27:32;;;;;;;7.03;3.25;;;17.40;99.90;;;;;;5035117;28;20032;-79
2023/08/16 08:29:58;;;;;;;7.10;3.30;;;17.50;99.90;;;;;;5040100;28;20507;-80
2023/08/16 08:32:23;;;;;;;6.25;3.42;;;17.50;99.90;;;;;;5021495;28;20044;-80
2023/08/16 08:34:49;;;;;;;8.05;3.28;;;17.70;99.90;;;;;;5041396;28;20249;-80
2023/08/16 08:37:14;;;;;;;6.00;2.92;;;17.80;99.90;;;;;;5036389;28;20135;-80
2023/08/16 08:39:40;;;;;;;6.30;2.83;;;18.00;99.90;;;;;;5045647;28;20037;-79
2023/08/16 08:42:08;;;;;;;5.18;2.80;;;18.20;99.90;;;;;;5020867;28;20033;-80
2023/08/16 08:44:38;;;;;;;5.68;3.13;;;18.60;99.90;;;;;;5038961;28;20293;-80
2023/08/16 08:47:06;;;;;;;5.72;2.22;;;18.80;99.90;;;;;;5037271;28;20043;-79
2023/08/16 08:49:34;;;;;;;5.93;2.50;;;19.00;99.90;;;;;;5038460;28;20115;-80
2023/08/16 08:52:03;;;;;;;;;;;19.20;99.90;;;;;;5038390;28;20106;-80
2023/08/16 08:54:30;;;;;;;3.90;1.92;;;19.40;99.90;;;;;;5033043;28;19967;-80
2023/08/16 08:56:59;;;;;;;4.20;1.70;;;19.70;99.90;;;;;;5034436;28;20159;-80
2023/08/16 08:59:27;;;;;;;7.50;2.00;;;20.00;99.90;;;;;;5049686;28;20048;-82
2023/08/16 09:01:53;;;;;;;4.80;1.75;;;20.20;99.90;;;;;;5030099;28;20378;-80
2023/08/16 09:04:19;;;;;;;3.60;1.73;;;20.30;99.90;;;;;;5050991;28;20043;-80
2023/08/16 09:06:46;;;;;;;3.60;1.90;;;20.40;99.90;;;;;;5061242;28;20037;-81
2023/08/16 09:09:12;;;;;;;9.93;2.10;;;20.30;99.90;;;;;;5040772;28;20503;-80
2023/08/16 09:11:38;;;;;;;4.50;1.75;;;20.30;99.90;;;;;;5029878;28;20040;-80
2023/08/16 09:14:04;;;;;;;6.45;1.90;;;20.20;99.90;;;;;;5041687;28;20118;-80
2023/08/16 09:16:30;;;;;;;2.13;1.70;;;20.20;99.90;;;;;;5037627;28;20051;-80
2023/08/16 09:18:56;;;;;;;4.60;1.73;;;20.30;99.90;;;;;;5023064;28;20469;-80
2023/08/16 09:21:27;;;;;;;2.58;1.60;;;20.40;99.90;;;;;;5035482;28;20041;-80
2023/08/16 09:23:57;;;;;;;;;;;20.60;99.90;;;;;;5030891;28;20292;-80
2023/08/16 09:26:23;;;;;;;;;;;20.80;99.90;;;;;;5043043;28;20395;-80
2023/08/16 09:28:54;;;;;;;;;;;21.00;99.90;;;;;;5042913;28;19917;-80
2023/08/16 09:31:20;;;;;;;3.45;1.70;;;21.40;99.90;;;;;;5036347;28;20002;-81
2023/08/16 09:33:46;;;;;;;4.88;1.80;;;21.70;99.90;;;;;;5036059;28;20064;-80
2023/08/16 09:36:12;;;;;;;3.80;1.90;;;22.00;99.90;;;;;;5053332;28;20045;-80
2023/08/16 09:38:44;;;;;;;4.85;1.90;;;22.30;99.90;;;;;;5049807;28;20503;-80
2023/08/16 09:41:22;;;;;;;5.25;1.95;;;22.60;99.90;;;;;;5043431;28;20086;-80
2023/08/16 09:43:48;;;;;;;4.70;1.90;;;22.80;99.90;;;;;;5033462;28;20041;-80
2023/08/16 09:46:20;;;;;;;4.35;1.85;;;23.00;99.90;;;;;;5029111;28;20552;-80
2023/08/16 09:48:45;;;;;;;2.60;1.58;;;23.20;99.90;;;;;;5037691;28;20396;-80
2023/08/16 09:51:11;;;;;;;2.20;1.40;;;23.40;99.90;;;;;;5035413;28;20045;-80
2023/08/16 09:53:47;;;;;;;3.83;1.90;;;23.60;99.90;;;;;;5055865;28;20040;-80
2023/08/16 09:56:14;;;;;;;3.83;1.40;;;23.90;99.90;;;;;;5036183;28;20108;-80
2023/08/16 09:58:40;;;;;;;4.38;1.70;;;24.00;99.90;;;;;;5035547;28;20047;-80
2023/08/16 10:01:06;;;;;;;2.63;1.42;;;24.20;99.90;;;;;;5044348;28;20036;-80
2023/08/16 10:03:33;;;;;;;5.00;1.52;;;24.30;99.90;;;;;;5037448;28;20524;-80
2023/08/16 10:06:00;;;;;;;4.15;1.70;;;24.40;99.90;;;;;;5040534;28;20120;-80
2023/08/16 10:08:27;;;;;;;2.58;1.25;;;24.60;99.90;;;;;;5042565;28;20052;-80
2023/08/16 10:10:54;;;;;;;4.88;1.92;;;24.80;99.90;;;;;;5055802;28;20060;-80
2023/08/16 10:13:22;;;;;;;2.72;1.60;;;24.80;99.90;;;;;;5034995;28;20037;-80
2023/08/16 10:15:51;;;;;;;1.48;1.30;;;24.90;99.90;;;;;;5045489;28;20063;-80
2023/08/16 10:18:21;;;;;;;3.45;1.48;;;25.00;99.90;;;;;;5052524;28;20044;-80
2023/08/16 10:20:48;;;;;;;3.08;1.45;;;25.10;99.90;;;;;;5039012;28;20082;-80
2023/08/16 10:23:18;;;;;;;3.30;1.40;;;25.20;99.90;;;;;;5040544;28;20048;-80
2023/08/16 10:25:47;;;;;;;3.70;1.40;;;25.30;99.90;;;;;;5034993;28;20044;-80
2023/08/16 10:28:19;;;;;;;6.43;1.67;;;25.40;99.90;;;;;;5049990;28;20090;-80
2023/08/16 10:30:51;;;;;;;3.60;1.50;;;25.40;99.10;;;;;;5034508;28;20048;-80
2023/08/16 10:33:23;;;;;;;3.05;1.10;;;25.50;98.60;;;;;;5039997;28;20041;-80
2023/08/16 10:35:50;;;;;;;4.13;1.52;;;25.60;98.70;;;;;;5031833;28;20341;-80
2023/08/16 10:38:18;;;;;;;4.72;1.70;;;25.70;98.70;;;;;;5033536;28;20032;-80
2023/08/16 10:40:57;;;;;;;3.80;1.35;;;25.90;98.40;;;;;;5042525;28;20435;-80
2023/08/16 10:43:31;;;;;;;1.92;1.38;;;26.00;97.60;;;;;;5042525;28;20048;-80
2023/08/16 10:45:57;;;;;;;2.72;1.33;;;26.10;97.40;;;;;;5055200;28;20044;-80
2023/08/16 10:48:22;;;;;;;1.73;1.30;;;26.20;97.50;;;;;;5043914;28;20048;-80
2023/08/16 10:50:55;;;;;;;3.65;1.30;;;26.20;97.10;;;;;;5054681;28;20041;-80
2023/08/16 10:53:25;;;;;;;3.40;1.38;;;26.20;96.10;;;;;;5038495;28;20037;-80
2023/08/16 10:55:55;;;;;;;2.72;1.40;;;26.30;96.50;;;;;;5031540;28;20503;-81
2023/08/16 10:58:24;;;;;;;4.65;1.38;;;26.40;96.40;;;;;;5034562;28;20065;-80
2023/08/16 11:00:58;;;;;;;2.70;1.30;;;26.50;96.20;;;;;;5041886;28;20044;-80
2023/08/16 11:03:34;;;;;;;2.85;1.30;;;26.70;95.50;;;;;;5032861;28;20033;-80
2023/08/16 11:06:06;;;;;;;1.80;1.20;;;26.80;95.00;;;;;;5040507;28;20044;-80
2023/08/16 11:08:32;;;;;;;2.33;1.10;;;26.80;95.50;;;;;;5041526;28;20107;-80
2023/08/16 11:11:00;;;;;;;3.70;1.25;;;26.90;95.10;;;;;;5048714;28;20470;-80
2023/08/16 11:13:28;;;;;;;1.20;1.10;;;26.90;94.70;;;;;;5038488;28;20098;-80
2023/08/16 11:15:54;;;;;;;3.33;1.20;;;27.00;94.00;;;;;;5043339;28;20033;-80
2023/08/16 11:18:30;;;;;;;3.15;1.25;;;27.10;94.00;;;;;;5044226;28;20484;-79
2023/08/16 11:20:59;;;;;;;1.58;1.10;;;27.10;93.00;;;;;;5050844;28;20045;-80
2023/08/16 11:23:35;;;;;;;4.65;1.40;;;26.90;93.10;;;;;;5063278;28;20036;-80
2023/08/16 11:26:02;;;;;;;2.35;1.30;;;26.70;93.20;;;;;;5032164;28;20045;-79
2023/08/16 11:28:30;;;;;;;3.00;1.30;;;26.60;93.40;;;;;;5037400;28;20037;-80
2023/08/16 11:30:57;;;;;;;2.22;1.15;;;26.60;93.60;;;;;;5048775;28;20130;-79
2023/08/16 11:33:22;;;;;;;3.35;1.20;;;26.60;93.70;;;;;;5055136;28;20052;-79
2023/08/16 11:35:48;;;;;;;4.15;1.58;;;26.60;93.20;;;;;;5028651;28;20033;-80
2023/08/16 11:38:14;;;;;;;2.05;1.40;;;26.60;93.30;;;;;;5041653;28;20039;-80
2023/08/16 11:43:10;;;;;;;3.35;1.40;;;26.80;92.90;;;;;;5043135;28;20049;-78
2023/08/16 11:45:43;;;;;;;2.50;1.40;;;26.90;92.30;;;;;;5001486;28;20041;-77
2023/08/16 11:48:13;;;;;;;4.32;1.35;;;27.00;91.30;;;;;;5038643;28;20041;-76
2023/08/16 11:50:39;;;;;;;4.10;1.55;;;27.00;91.70;;;;;;4990175;28;20065;-77
2023/08/16 11:53:06;;;;;;;3.03;1.35;;;27.20;91.80;;;;;;5004588;28;20120;-77
2023/08/16 11:55:33;;;;;;;3.63;1.30;;;27.40;91.70;;;;;;5003279;28;20098;-77
2023/08/16 11:58:44;;;;;;;2.20;1.27;;;27.20;91.40;;;;;;5024011;28;20060;-77
2023/08/16 12:01:12;;;;;;;4.65;1.50;;;27.00;90.70;;;;;;5027478;28;20131;-77
2023/08/16 12:03:38;;;;;;;2.88;1.50;;;26.70;91.60;;;;;;5005615;28;20041;-77
2023/08/16 12:06:11;;;;;;;3.05;1.73;;;26.50;91.70;;;;;;5035826;28;20030;-77
2023/08/16 12:08:48;;;;;;;3.70;1.90;;;26.40;92.00;;;;;;5021111;28;20124;-77
2023/08/16 12:11:37;;;;;;;4.57;1.77;;;26.20;92.50;;;;;;5011497;28;20092;-77
2023/08/16 12:14:04;;;;;;;2.85;1.40;;;26.30;93.10;;;;;;5011214;28;20048;-77
2023/08/16 12:16:31;;;;;;;5.35;1.65;;;26.40;93.00;;;;;;5046097;28;20036;-77
2023/08/16 12:19:02;;;;;;;2.78;1.27;;;26.40;92.90;;;;;;4994993;28;20564;-77
2023/08/16 12:21:28;;;;;;;5.28;1.33;;;26.60;93.10;;;;;;5018369;28;20124;-77
2023/08/16 12:23:54;;;;;;;1.98;1.30;;;26.70;93.00;;;;;;5013693;28;20249;-77
2023/08/16 12:26:19;;;;;;;2.95;1.63;;;26.90;92.70;;;;;;5006836;28;20124;-77
2023/08/16 12:28:45;;;;;;;4.72;1.92;;;27.00;92.10;;;;;;4998611;28;20045;-77
2023/08/16 12:31:11;;;;;;;2.13;1.25;;;27.10;91.90;;;;;;5041022;28;20057;-77
2023/08/16 12:33:37;;;;;;;2.88;1.40;;;27.20;91.70;;;;;;5041313;28;20132;-77
2023/08/16 12:36:03;;;;;;;3.65;1.48;;;27.30;91.30;;;;;;4999268;28;20492;-77
2023/08/16 12:38:29;;;;;;;2.00;1.38;;;27.40;91.20;;;;;;5048412;28;20155;-77
2023/08/16 12:40:55;;;;;;;3.00;1.30;;;27.50;91.40;;;;;;4998865;28;20113;-77
2023/08/16 12:43:21;;;;;;;3.17;1.38;;;27.60;91.30;;;;;;4998788;28;20041;-77
2023/08/16 12:45:46;;;;;;;3.58;1.58;;;27.60;91.20;;;;;;5001314;28;20045;-77
2023/08/16 12:48:14;;;;;;;5.68;1.70;;;27.70;90.90;;;;;;5027696;28;20045;-77